sensor_id;sensor_type;location;lat;lon;timestamp;temperature;humidity
22065;DHT22;11197;53.110;8.468;2022-12-29T00:01:40;9.40;99.90
22065;DHT22;11197;53.110;8.468;2022-12-29T00:04:06;9.40;99.90
22065;DHT22;11197;53.110;8.468;2022-12-29T00:06:32;9.40;99.90
22065;DHT22;11197;53.110;8.468;2022-12-29T00:08:58;9.50;99.90
22065;DHT22;11197;53.110;8.468;2022-12-29T00:11:26;9.50;99.90
22065;DHT22;11197;53.110;8.468;2022-12-29T00:13:52;9.50;99.90
22065;DHT22;11197;53.110;8.468;2022-12-29T00:16:39;9.50;99.90
22065;DHT22;11197;53.110;8.468;2022-12-29T00:19:06;9.50;99.90
22065;DHT22;11197;53.110;8.468;2022-12-29T00:21:32;9.50;99.90
22065;DHT22;11197;53.110;8.468;2022-12-29T00:24:21;9.50;99.90
22065;DHT22;11197;53.110;8.468;2022-12-29T00:27:10;9.50;99.90
22065;DHT22;11197;53.110;8.468;2022-12-29T00:29:55;9.50;99.90
22065;DHT22;11197;53.110;8.468;2022-12-29T00:32:40;9.50;99.90
22065;DHT22;11197;53.110;8.468;2022-12-29T00:35:31;9.50;99.90
22065;DHT22;11197;53.110;8.468;2022-12-29T00:38:00;9.50;99.90
22065;DHT22;11197;53.110;8.468;2022-12-29T00:40:45;9.50;99.90
22065;DHT22;11197;53.110;8.468;2022-12-29T00:43:30;9.50;99.90
22065;DHT22;11197;53.110;8.468;2022-12-29T00:46:14;9.50;99.90
22065;DHT22;11197;53.110;8.468;2022-12-29T00:48:40;9.60;99.90
22065;DHT22;11197;53.110;8.468;2022-12-29T00:51:24;9.50;99.90
22065;DHT22;11197;53.110;8.468;2022-12-29T00:53:50;9.50;99.90
22065;DHT22;11197;53.110;8.468;2022-12-29T00:56:16;9.60;99.90
22065;DHT22;11197;53.110;8.468;2022-12-29T00:58:42;9.60;99.90
22065;DHT22;11197;53.110;8.468;2022-12-29T01:01:08;9.60;99.90
22065;DHT22;11197;53.110;8.468;2022-12-29T01:03:36;9.60;99.90
22065;DHT22;11197;53.110;8.468;2022-12-29T01:06:04;9.60;99.90
22065;DHT22;11197;53.110;8.468;2022-12-29T01:08:30;9.60;99.90
22065;DHT22;11197;53.110;8.468;2022-12-29T01:11:00;9.60;99.90
22065;DHT22;11197;53.110;8.468;2022-12-29T01:13:27;9.60;99.90
22065;DHT22;11197;53.110;8.468;2022-12-29T01:15:53;9.60;99.90
22065;DHT22;11197;53.110;8.468;2022-12-29T01:18:20;9.70;99.90
22065;DHT22;11197;53.110;8.468;2022-12-29T01:20:46;9.60;99.90
22065;DHT22;11197;53.110;8.468;2022-12-29T01:23:12;9.70;99.90
22065;DHT22;11197;53.110;8.468;2022-12-29T01:25:38;9.70;99.90
22065;DHT22;11197;53.110;8.468;2022-12-29T01:28:04;9.70;99.90
22065;DHT22;11197;53.110;8.468;2022-12-29T01:30:29;9.70;99.90
22065;DHT22;11197;53.110;8.468;2022-12-29T01:32:56;9.70;99.90
22065;DHT22;11197;53.110;8.468;2022-12-29T01:35:21;9.80;99.90
22065;DHT22;11197;53.110;8.468;2022-12-29T01:37:47;9.80;99.90
22065;DHT22;11197;53.110;8.468;2022-12-29T01:40:14;9.80;99.90
22065;DHT22;11197;53.110;8.468;2022-12-29T01:42:40;9.80;99.90
22065;DHT22;11197;53.110;8.468;2022-12-29T01:45:14;9.80;99.90
22065;DHT22;11197;53.110;8.468;2022-12-29T01:47:48;9.80;99.90
22065;DHT22;11197;53.110;8.468;2022-12-29T01:50:31;9.80;99.90
22065;DHT22;11197;53.110;8.468;2022-12-29T01:52:58;9.80;99.90
22065;DHT22;11197;53.110;8.468;2022-12-29T01:55:30;9.90;99.90
22065;DHT22;11197;53.110;8.468;2022-12-29T01:58:00;10.00;99.90
22065;DHT22;11197;53.110;8.468;2022-12-29T02:00:29;10.00;99.90
22065;DHT22;11197;53.110;8.468;2022-12-29T02:02:55;10.00;99.90
22065;DHT22;11197;53.110;8.468;2022-12-29T02:07:51;10.00;99.90
22065;DHT22;11197;53.110;8.468;2022-12-29T02:10:20;10.10;99.90
22065;DHT22;11197;53.110;8.468;2022-12-29T02:12:47;10.00;99.90
22065;DHT22;11197;53.110;8.468;2022-12-29T02:15:16;10.00;99.90
22065;DHT22;11197;53.110;8.468;2022-12-29T02:23:39;10.10;99.90
22065;DHT22;11197;53.110;8.468;2022-12-29T02:42:51;10.30;99.90
22065;DHT22;11197;53.110;8.468;2022-12-29T02:48:10;10.30;99.90
22065;DHT22;11197;53.110;8.468;2022-12-29T02:50:51;10.20;99.90
22065;DHT22;11197;53.110;8.468;2022-12-29T02:53:20;10.30;99.90
22065;DHT22;11197;53.110;8.468;2022-12-29T02:56:07;10.30;99.90
22065;DHT22;11197;53.110;8.468;2022-12-29T02:58:36;10.40;99.90
22065;DHT22;11197;53.110;8.468;2022-12-29T03:12:30;10.30;99.90
22065;DHT22;11197;53.110;8.468;2022-12-29T03:15:39;10.40;99.90
22065;DHT22;11197;53.110;8.468;2022-12-29T03:21:32;10.40;99.90
22065;DHT22;11197;53.110;8.468;2022-12-29T03:24:22;10.40;99.90
22065;DHT22;11197;53.110;8.468;2022-12-29T03:26:49;10.40;99.90
22065;DHT22;11197;53.110;8.468;2022-12-29T03:29:19;10.40;99.90
22065;DHT22;11197;53.110;8.468;2022-12-29T03:31:48;10.40;99.90
22065;DHT22;11197;53.110;8.468;2022-12-29T03:34:17;10.40;99.90
22065;DHT22;11197;53.110;8.468;2022-12-29T03:36:49;10.40;99.90
22065;DHT22;11197;53.110;8.468;2022-12-29T03:39:18;10.40;99.90
22065;DHT22;11197;53.110;8.468;2022-12-29T03:41:49;10.40;99.90
22065;DHT22;11197;53.110;8.468;2022-12-29T03:44:17;10.50;99.90
22065;DHT22;11197;53.110;8.468;2022-12-29T03:46:43;10.40;99.90
22065;DHT22;11197;53.110;8.468;2022-12-29T03:49:09;10.40;99.90
22065;DHT22;11197;53.110;8.468;2022-12-29T03:51:35;10.40;99.90
22065;DHT22;11197;53.110;8.468;2022-12-29T03:54:04;10.40;99.90
22065;DHT22;11197;53.110;8.468;2022-12-29T03:56:30;10.40;99.90
22065;DHT22;11197;53.110;8.468;2022-12-29T03:58:57;10.30;99.90
22065;DHT22;11197;53.110;8.468;2022-12-29T04:01:29;10.30;99.90
22065;DHT22;11197;53.110;8.468;2022-12-29T04:03:55;10.30;99.90
22065;DHT22;11197;53.110;8.468;2022-12-29T04:06:21;10.30;99.90
22065;DHT22;11197;53.110;8.468;2022-12-29T04:08:52;10.30;99.90
22065;DHT22;11197;53.110;8.468;2022-12-29T04:11:20;10.30;99.90
22065;DHT22;11197;53.110;8.468;2022-12-29T04:13:46;10.30;99.90
22065;DHT22;11197;53.110;8.468;2022-12-29T04:16:16;10.30;99.90
22065;DHT22;11197;53.110;8.468;2022-12-29T04:18:42;10.30;99.90
22065;DHT22;11197;53.110;8.468;2022-12-29T04:21:08;10.30;99.90
22065;DHT22;11197;53.110;8.468;2022-12-29T04:23:38;10.30;99.90
22065;DHT22;11197;53.110;8.468;2022-12-29T04:26:07;10.40;99.90
22065;DHT22;11197;53.110;8.468;2022-12-29T04:28:39;10.30;99.90
22065;DHT22;11197;53.110;8.468;2022-12-29T04:31:24;10.30;99.90
22065;DHT22;11197;53.110;8.468;2022-12-29T04:33:51;10.30;99.90
22065;DHT22;11197;53.110;8.468;2022-12-29T04:36:17;10.30;99.90
22065;DHT22;11197;53.110;8.468;2022-12-29T04:38:42;10.30;99.90
22065;DHT22;11197;53.110;8.468;2022-12-29T04:41:09;10.30;99.90
22065;DHT22;11197;53.110;8.468;2022-12-29T04:43:37;10.30;99.90
22065;DHT22;11197;53.110;8.468;2022-12-29T04:46:15;10.30;99.90
22065;DHT22;11197;53.110;8.468;2022-12-29T04:49:02;10.30;99.90
22065;DHT22;11197;53.110;8.468;2022-12-29T04:51:46;10.40;99.90
22065;DHT22;11197;53.110;8.468;2022-12-29T04:54:14;10.40;99.90
22065;DHT22;11197;53.110;8.468;2022-12-29T04:56:40;10.40;99.90
22065;DHT22;11197;53.110;8.468;2022-12-29T04:59:07;10.40;99.90
22065;DHT22;11197;53.110;8.468;2022-12-29T05:01:32;10.40;99.90
22065;DHT22;11197;53.110;8.468;2022-12-29T05:03:59;10.40;99.90
22065;DHT22;11197;53.110;8.468;2022-12-29T05:06:25;10.50;99.90
22065;DHT22;11197;53.110;8.468;2022-12-29T05:08:51;10.50;99.90
22065;DHT22;11197;53.110;8.468;2022-12-29T05:11:17;10.50;99.90
22065;DHT22;11197;53.110;8.468;2022-12-29T05:13:46;10.40;99.90
22065;DHT22;11197;53.110;8.468;2022-12-29T05:16:13;10.40;99.90
22065;DHT22;11197;53.110;8.468;2022-12-29T05:18:39;10.40;99.90
22065;DHT22;11197;53.110;8.468;2022-12-29T05:21:07;10.50;99.90
22065;DHT22;11197;53.110;8.468;2022-12-29T05:23:34;10.50;99.90
22065;DHT22;11197;53.110;8.468;2022-12-29T05:26:03;10.50;99.90
22065;DHT22;11197;53.110;8.468;2022-12-29T05:28:59;10.50;99.90
22065;DHT22;11197;53.110;8.468;2022-12-29T05:31:25;10.50;99.90
22065;DHT22;11197;53.110;8.468;2022-12-29T05:33:52;10.50;99.90
22065;DHT22;11197;53.110;8.468;2022-12-29T05:36:18;10.50;99.90
22065;DHT22;11197;53.110;8.468;2022-12-29T05:38:51;10.50;99.90
22065;DHT22;11197;53.110;8.468;2022-12-29T05:41:17;10.50;99.90
22065;DHT22;11197;53.110;8.468;2022-12-29T05:43:46;10.50;99.90
22065;DHT22;11197;53.110;8.468;2022-12-29T05:46:19;10.40;99.90
22065;DHT22;11197;53.110;8.468;2022-12-29T05:48:56;10.50;99.90
22065;DHT22;11197;53.110;8.468;2022-12-29T05:51:34;10.50;99.90
22065;DHT22;11197;53.110;8.468;2022-12-29T05:54:00;10.50;99.90
22065;DHT22;11197;53.110;8.468;2022-12-29T05:56:26;10.40;99.90
22065;DHT22;11197;53.110;8.468;2022-12-29T05:59:00;10.40;99.90
22065;DHT22;11197;53.110;8.468;2022-12-29T06:01:26;10.40;99.90
22065;DHT22;11197;53.110;8.468;2022-12-29T06:03:53;10.40;99.90
22065;DHT22;11197;53.110;8.468;2022-12-29T06:06:20;10.40;99.90
22065;DHT22;11197;53.110;8.468;2022-12-29T06:08:46;10.40;99.90
22065;DHT22;11197;53.110;8.468;2022-12-29T06:11:13;10.30;99.90
22065;DHT22;11197;53.110;8.468;2022-12-29T06:13:43;10.30;99.90
22065;DHT22;11197;53.110;8.468;2022-12-29T06:16:08;10.30;99.90
22065;DHT22;11197;53.110;8.468;2022-12-29T06:18:38;10.30;99.90
22065;DHT22;11197;53.110;8.468;2022-12-29T06:21:05;10.30;99.90
22065;DHT22;11197;53.110;8.468;2022-12-29T06:23:31;10.30;99.90
22065;DHT22;11197;53.110;8.468;2022-12-29T06:25:58;10.30;99.90
22065;DHT22;11197;53.110;8.468;2022-12-29T06:28:24;10.20;99.90
22065;DHT22;11197;53.110;8.468;2022-12-29T06:30:50;10.20;99.90
22065;DHT22;11197;53.110;8.468;2022-12-29T06:33:17;10.20;99.90
22065;DHT22;11197;53.110;8.468;2022-12-29T06:35:43;10.20;99.90
22065;DHT22;11197;53.110;8.468;2022-12-29T06:38:12;10.30;99.90
22065;DHT22;11197;53.110;8.468;2022-12-29T06:40:38;10.20;99.90
22065;DHT22;11197;53.110;8.468;2022-12-29T06:43:27;10.30;99.90
22065;DHT22;11197;53.110;8.468;2022-12-29T06:46:03;10.20;99.90
22065;DHT22;11197;53.110;8.468;2022-12-29T06:48:29;10.30;99.90
22065;DHT22;11197;53.110;8.468;2022-12-29T06:50:55;10.30;99.90
22065;DHT22;11197;53.110;8.468;2022-12-29T06:53:21;10.30;99.90
22065;DHT22;11197;53.110;8.468;2022-12-29T06:55:46;10.30;99.90
22065;DHT22;11197;53.110;8.468;2022-12-29T06:58:12;10.30;99.90
22065;DHT22;11197;53.110;8.468;2022-12-29T07:00:38;10.30;99.90
22065;DHT22;11197;53.110;8.468;2022-12-29T07:03:05;10.30;99.90
22065;DHT22;11197;53.110;8.468;2022-12-29T07:05:31;10.20;99.90
22065;DHT22;11197;53.110;8.468;2022-12-29T07:07:58;10.20;99.90
22065;DHT22;11197;53.110;8.468;2022-12-29T07:10:24;10.20;99.90
22065;DHT22;11197;53.110;8.468;2022-12-29T07:12:49;10.20;99.90
22065;DHT22;11197;53.110;8.468;2022-12-29T07:15:15;10.20;99.90
22065;DHT22;11197;53.110;8.468;2022-12-29T07:17:41;10.20;99.90
22065;DHT22;11197;53.110;8.468;2022-12-29T07:20:07;10.20;99.90
22065;DHT22;11197;53.110;8.468;2022-12-29T07:22:33;10.20;99.90
22065;DHT22;11197;53.110;8.468;2022-12-29T07:24:59;10.20;99.90
22065;DHT22;11197;53.110;8.468;2022-12-29T07:27:25;10.20;99.90
22065;DHT22;11197;53.110;8.468;2022-12-29T07:29:51;10.20;99.90
22065;DHT22;11197;53.110;8.468;2022-12-29T07:32:16;10.20;99.90
22065;DHT22;11197;53.110;8.468;2022-12-29T07:34:42;10.20;99.90
22065;DHT22;11197;53.110;8.468;2022-12-29T07:37:10;10.20;99.90
22065;DHT22;11197;53.110;8.468;2022-12-29T07:39:36;10.20;99.90
22065;DHT22;11197;53.110;8.468;2022-12-29T07:42:05;10.20;99.90
22065;DHT22;11197;53.110;8.468;2022-12-29T07:44:38;10.20;99.90
22065;DHT22;11197;53.110;8.468;2022-12-29T07:47:22;10.20;99.90
22065;DHT22;11197;53.110;8.468;2022-12-29T07:49:48;10.20;99.90
22065;DHT22;11197;53.110;8.468;2022-12-29T07:52:14;10.10;99.90
22065;DHT22;11197;53.110;8.468;2022-12-29T07:54:40;10.20;99.90
22065;DHT22;11197;53.110;8.468;2022-12-29T07:57:06;10.10;99.90
22065;DHT22;11197;53.110;8.468;2022-12-29T07:59:31;10.10;99.90
22065;DHT22;11197;53.110;8.468;2022-12-29T08:01:57;10.10;99.90
22065;DHT22;11197;53.110;8.468;2022-12-29T08:04:25;10.10;99.90
22065;DHT22;11197;53.110;8.468;2022-12-29T08:06:51;10.10;99.90
22065;DHT22;11197;53.110;8.468;2022-12-29T08:09:16;10.10;99.90
22065;DHT22;11197;53.110;8.468;2022-12-29T08:11:42;10.00;99.90
22065;DHT22;11197;53.110;8.468;2022-12-29T08:14:08;10.00;99.90
22065;DHT22;11197;53.110;8.468;2022-12-29T08:16:34;10.00;99.90
22065;DHT22;11197;53.110;8.468;2022-12-29T08:19:01;10.00;99.90
22065;DHT22;11197;53.110;8.468;2022-12-29T08:21:28;10.00;99.90
22065;DHT22;11197;53.110;8.468;2022-12-29T08:23:54;10.10;99.90
22065;DHT22;11197;53.110;8.468;2022-12-29T08:26:20;10.00;99.90
22065;DHT22;11197;53.110;8.468;2022-12-29T08:28:46;10.00;99.90
22065;DHT22;11197;53.110;8.468;2022-12-29T08:31:11;10.00;99.90
22065;DHT22;11197;53.110;8.468;2022-12-29T08:33:37;10.00;99.90
22065;DHT22;11197;53.110;8.468;2022-12-29T08:36:05;10.00;99.90
22065;DHT22;11197;53.110;8.468;2022-12-29T08:38:31;10.00;99.90
22065;DHT22;11197;53.110;8.468;2022-12-29T08:40:58;10.10;99.90
22065;DHT22;11197;53.110;8.468;2022-12-29T08:43:24;10.10;99.90
22065;DHT22;11197;53.110;8.468;2022-12-29T08:45:51;10.10;99.90
22065;DHT22;11197;53.110;8.468;2022-12-29T08:48:17;10.10;99.90
22065;DHT22;11197;53.110;8.468;2022-12-29T08:50:45;10.10;99.90
22065;DHT22;11197;53.110;8.468;2022-12-29T08:53:12;10.20;99.90
22065;DHT22;11197;53.110;8.468;2022-12-29T08:55:38;10.20;99.90
22065;DHT22;11197;53.110;8.468;2022-12-29T08:58:04;10.20;99.90
22065;DHT22;11197;53.110;8.468;2022-12-29T09:00:30;10.10;99.90
22065;DHT22;11197;53.110;8.468;2022-12-29T09:02:56;10.10;99.90
22065;DHT22;11197;53.110;8.468;2022-12-29T09:05:22;10.10;99.90
22065;DHT22;11197;53.110;8.468;2022-12-29T09:07:48;10.00;99.90
22065;DHT22;11197;53.110;8.468;2022-12-29T09:10:14;10.10;99.90
22065;DHT22;11197;53.110;8.468;2022-12-29T09:12:40;10.00;99.90
22065;DHT22;11197;53.110;8.468;2022-12-29T09:15:06;10.00;99.90
22065;DHT22;11197;53.110;8.468;2022-12-29T09:17:33;10.00;99.90
22065;DHT22;11197;53.110;8.468;2022-12-29T09:20:10;10.00;99.90
22065;DHT22;11197;53.110;8.468;2022-12-29T09:22:36;10.00;99.90
22065;DHT22;11197;53.110;8.468;2022-12-29T09:25:03;10.00;99.90
22065;DHT22;11197;53.110;8.468;2022-12-29T09:27:29;10.00;99.90
22065;DHT22;11197;53.110;8.468;2022-12-29T09:29:56;10.00;99.90
22065;DHT22;11197;53.110;8.468;2022-12-29T09:32:22;10.00;99.90
22065;DHT22;11197;53.110;8.468;2022-12-29T09:34:48;10.10;99.90
22065;DHT22;11197;53.110;8.468;2022-12-29T09:37:14;10.10;99.90
22065;DHT22;11197;53.110;8.468;2022-12-29T09:39:40;10.00;99.90
22065;DHT22;11197;53.110;8.468;2022-12-29T09:42:19;10.10;99.90
22065;DHT22;11197;53.110;8.468;2022-12-29T09:47:25;10.10;99.90
22065;DHT22;11197;53.110;8.468;2022-12-29T09:50:05;10.10;99.90
22065;DHT22;11197;53.110;8.468;2022-12-29T09:52:48;10.10;99.90
22065;DHT22;11197;53.110;8.468;2022-12-29T09:55:19;10.10;99.90
22065;DHT22;11197;53.110;8.468;2022-12-29T09:58:24;10.10;99.90
22065;DHT22;11197;53.110;8.468;2022-12-29T10:03:49;10.10;99.90
22065;DHT22;11197;53.110;8.468;2022-12-29T10:08:58;10.10;99.90
22065;DHT22;11197;53.110;8.468;2022-12-29T10:14:50;10.10;99.90
22065;DHT22;11197;53.110;8.468;2022-12-29T10:25:39;10.10;99.90
22065;DHT22;11197;53.110;8.468;2022-12-29T10:31:19;10.10;99.90
22065;DHT22;11197;53.110;8.468;2022-12-29T10:33:49;10.10;99.90
22065;DHT22;11197;53.110;8.468;2022-12-29T10:36:41;10.10;99.90
22065;DHT22;11197;53.110;8.468;2022-12-29T10:39:14;10.20;99.90
22065;DHT22;11197;53.110;8.468;2022-12-29T10:41:57;10.20;99.90
22065;DHT22;11197;53.110;8.468;2022-12-29T10:44:29;10.20;99.90
22065;DHT22;11197;53.110;8.468;2022-12-29T10:47:02;10.20;99.90
22065;DHT22;11197;53.110;8.468;2022-12-29T10:49:31;10.30;99.90
22065;DHT22;11197;53.110;8.468;2022-12-29T10:52:03;10.30;99.90
22065;DHT22;11197;53.110;8.468;2022-12-29T10:57:42;10.30;99.90
22065;DHT22;11197;53.110;8.468;2022-12-29T11:00:21;10.20;99.90
22065;DHT22;11197;53.110;8.468;2022-12-29T11:03:30;10.20;99.90
22065;DHT22;11197;53.110;8.468;2022-12-29T11:08:35;10.20;99.90
22065;DHT22;11197;53.110;8.468;2022-12-29T11:11:07;10.20;99.90
22065;DHT22;11197;53.110;8.468;2022-12-29T11:13:58;10.30;99.90
22065;DHT22;11197;53.110;8.468;2022-12-29T11:16:32;10.30;99.90
22065;DHT22;11197;53.110;8.468;2022-12-29T11:19:00;10.30;99.90
22065;DHT22;11197;53.110;8.468;2022-12-29T11:24:01;10.30;99.90
22065;DHT22;11197;53.110;8.468;2022-12-29T11:26:29;10.40;99.90
22065;DHT22;11197;53.110;8.468;2022-12-29T11:31:43;10.40;99.90
22065;DHT22;11197;53.110;8.468;2022-12-29T11:34:37;10.40;99.90
22065;DHT22;11197;53.110;8.468;2022-12-29T11:39:53;10.40;99.90
22065;DHT22;11197;53.110;8.468;2022-12-29T11:42:34;10.40;99.90
22065;DHT22;11197;53.110;8.468;2022-12-29T11:45:16;10.40;99.90
22065;DHT22;11197;53.110;8.468;2022-12-29T11:47:53;10.50;99.90
22065;DHT22;11197;53.110;8.468;2022-12-29T11:50:41;10.50;99.90
22065;DHT22;11197;53.110;8.468;2022-12-29T11:56:06;10.50;99.90
22065;DHT22;11197;53.110;8.468;2022-12-29T11:58:36;10.50;99.90
22065;DHT22;11197;53.110;8.468;2022-12-29T12:01:23;10.50;99.90
22065;DHT22;11197;53.110;8.468;2022-12-29T12:04:13;10.60;99.90
22065;DHT22;11197;53.110;8.468;2022-12-29T12:07:05;10.60;99.90
22065;DHT22;11197;53.110;8.468;2022-12-29T12:09:58;10.70;99.90
22065;DHT22;11197;53.110;8.468;2022-12-29T12:12:48;10.70;99.90
22065;DHT22;11197;53.110;8.468;2022-12-29T12:15:39;10.70;99.90
22065;DHT22;11197;53.110;8.468;2022-12-29T12:18:26;10.70;99.90
22065;DHT22;11197;53.110;8.468;2022-12-29T12:20:58;10.70;99.90
22065;DHT22;11197;53.110;8.468;2022-12-29T12:26:21;10.60;99.90
22065;DHT22;11197;53.110;8.468;2022-12-29T12:28:58;10.60;99.90
22065;DHT22;11197;53.110;8.468;2022-12-29T12:31:34;10.60;99.90
22065;DHT22;11197;53.110;8.468;2022-12-29T12:34:06;10.50;99.90
22065;DHT22;11197;53.110;8.468;2022-12-29T12:45:25;10.30;99.90
22065;DHT22;11197;53.110;8.468;2022-12-29T12:48:33;10.30;99.90
22065;DHT22;11197;53.110;8.468;2022-12-29T12:51:24;10.20;99.90
22065;DHT22;11197;53.110;8.468;2022-12-29T12:54:18;10.10;99.90
22065;DHT22;11197;53.110;8.468;2022-12-29T13:16:34;9.90;99.90
22065;DHT22;11197;53.110;8.468;2022-12-29T13:30:33;9.90;99.90
22065;DHT22;11197;53.110;8.468;2022-12-29T13:38:36;9.90;99.90
22065;DHT22;11197;53.110;8.468;2022-12-29T13:41:16;9.90;99.90
22065;DHT22;11197;53.110;8.468;2022-12-29T13:43:46;9.90;99.90
22065;DHT22;11197;53.110;8.468;2022-12-29T13:46:23;9.80;99.90
22065;DHT22;11197;53.110;8.468;2022-12-29T13:48:58;9.80;99.90
22065;DHT22;11197;53.110;8.468;2022-12-29T13:51:34;9.80;99.90
22065;DHT22;11197;53.110;8.468;2022-12-29T13:57:09;9.80;99.90
22065;DHT22;11197;53.110;8.468;2022-12-29T14:08:00;9.80;99.90
22065;DHT22;11197;53.110;8.468;2022-12-29T14:10:32;9.80;99.90
22065;DHT22;11197;53.110;8.468;2022-12-29T14:13:20;9.90;99.90
22065;DHT22;11197;53.110;8.468;2022-12-29T14:15:58;9.80;99.90
22065;DHT22;11197;53.110;8.468;2022-12-29T14:18:42;9.80;99.90
22065;DHT22;11197;53.110;8.468;2022-12-29T14:21:25;9.80;99.90
22065;DHT22;11197;53.110;8.468;2022-12-29T14:35:42;9.70;99.90
22065;DHT22;11197;53.110;8.468;2022-12-29T14:38:28;9.60;99.90
22065;DHT22;11197;53.110;8.468;2022-12-29T14:44:01;9.60;99.90
22065;DHT22;11197;53.110;8.468;2022-12-29T14:49:27;9.60;99.90
22065;DHT22;11197;53.110;8.468;2022-12-29T14:52:21;9.50;99.90
22065;DHT22;11197;53.110;8.468;2022-12-29T14:54:51;9.60;99.90
22065;DHT22;11197;53.110;8.468;2022-12-29T14:57:34;9.70;99.90
22065;DHT22;11197;53.110;8.468;2022-12-29T15:00:27;9.80;99.90
22065;DHT22;11197;53.110;8.468;2022-12-29T15:03:51;9.70;99.90
22065;DHT22;11197;53.110;8.468;2022-12-29T15:06:05;9.70;99.90
22065;DHT22;11197;53.110;8.468;2022-12-29T15:11:31;9.60;99.90
22065;DHT22;11197;53.110;8.468;2022-12-29T15:14:47;9.60;99.90
22065;DHT22;11197;53.110;8.468;2022-12-29T15:17:34;9.50;99.90
22065;DHT22;11197;53.110;8.468;2022-12-29T15:20:16;9.50;99.90
22065;DHT22;11197;53.110;8.468;2022-12-29T15:23:09;9.50;99.90
22065;DHT22;11197;53.110;8.468;2022-12-29T15:25:38;9.50;99.90
22065;DHT22;11197;53.110;8.468;2022-12-29T15:28:14;9.40;99.90
22065;DHT22;11197;53.110;8.468;2022-12-29T15:30:52;9.40;99.90
22065;DHT22;11197;53.110;8.468;2022-12-29T15:33:26;9.40;99.90
22065;DHT22;11197;53.110;8.468;2022-12-29T15:35:54;9.40;99.90
22065;DHT22;11197;53.110;8.468;2022-12-29T15:38:25;9.40;99.90
22065;DHT22;11197;53.110;8.468;2022-12-29T15:41:00;9.30;99.90
22065;DHT22;11197;53.110;8.468;2022-12-29T15:43:45;9.30;99.90
22065;DHT22;11197;53.110;8.468;2022-12-29T15:46:17;9.30;99.90
22065;DHT22;11197;53.110;8.468;2022-12-29T15:48:46;9.30;99.90
22065;DHT22;11197;53.110;8.468;2022-12-29T15:51:41;9.30;99.90
22065;DHT22;11197;53.110;8.468;2022-12-29T15:54:18;9.30;99.90
22065;DHT22;11197;53.110;8.468;2022-12-29T15:56:46;9.20;99.90
22065;DHT22;11197;53.110;8.468;2022-12-29T15:59:26;9.20;99.90
22065;DHT22;11197;53.110;8.468;2022-12-29T16:01:58;9.20;99.90
22065;DHT22;11197;53.110;8.468;2022-12-29T16:04:29;9.20;99.90
22065;DHT22;11197;53.110;8.468;2022-12-29T16:07:00;9.20;99.90
22065;DHT22;11197;53.110;8.468;2022-12-29T16:09:42;9.20;99.90
22065;DHT22;11197;53.110;8.468;2022-12-29T16:12:24;9.20;99.90
22065;DHT22;11197;53.110;8.468;2022-12-29T16:14:57;9.10;99.90
22065;DHT22;11197;53.110;8.468;2022-12-29T16:17:53;9.20;99.90
22065;DHT22;11197;53.110;8.468;2022-12-29T16:20:38;9.10;99.90
22065;DHT22;11197;53.110;8.468;2022-12-29T16:23:26;9.20;99.90
22065;DHT22;11197;53.110;8.468;2022-12-29T16:25:57;9.10;99.90
22065;DHT22;11197;53.110;8.468;2022-12-29T16:28:40;9.10;99.90
22065;DHT22;11197;53.110;8.468;2022-12-29T16:31:21;9.10;99.90
22065;DHT22;11197;53.110;8.468;2022-12-29T16:33:54;9.10;99.90
22065;DHT22;11197;53.110;8.468;2022-12-29T16:36:33;9.00;99.90
22065;DHT22;11197;53.110;8.468;2022-12-29T16:41:55;9.00;99.90
22065;DHT22;11197;53.110;8.468;2022-12-29T16:44:28;9.00;99.90
22065;DHT22;11197;53.110;8.468;2022-12-29T16:47:00;9.00;99.90
22065;DHT22;11197;53.110;8.468;2022-12-29T16:49:30;9.00;99.90
22065;DHT22;11197;53.110;8.468;2022-12-29T16:52:11;9.00;99.90
22065;DHT22;11197;53.110;8.468;2022-12-29T16:54:41;8.90;99.90
22065;DHT22;11197;53.110;8.468;2022-12-29T16:57:09;8.90;99.90
22065;DHT22;11197;53.110;8.468;2022-12-29T16:59:36;9.00;99.90
22065;DHT22;11197;53.110;8.468;2022-12-29T17:02:14;8.90;99.90
22065;DHT22;11197;53.110;8.468;2022-12-29T17:04:41;8.90;99.90
22065;DHT22;11197;53.110;8.468;2022-12-29T17:07:17;8.90;99.90
22065;DHT22;11197;53.110;8.468;2022-12-29T17:09:43;8.90;99.90
22065;DHT22;11197;53.110;8.468;2022-12-29T17:12:23;8.80;99.90
22065;DHT22;11197;53.110;8.468;2022-12-29T17:15:03;8.80;99.90
22065;DHT22;11197;53.110;8.468;2022-12-29T17:17:38;8.80;99.90
22065;DHT22;11197;53.110;8.468;2022-12-29T17:20:28;8.90;99.90
22065;DHT22;11197;53.110;8.468;2022-12-29T17:22:56;8.80;99.90
22065;DHT22;11197;53.110;8.468;2022-12-29T17:27:58;8.90;99.90
22065;DHT22;11197;53.110;8.468;2022-12-29T17:30:28;8.90;99.90
22065;DHT22;11197;53.110;8.468;2022-12-29T17:33:08;8.90;99.90
22065;DHT22;11197;53.110;8.468;2022-12-29T17:35:36;8.90;99.90
22065;DHT22;11197;53.110;8.468;2022-12-29T17:38:02;8.90;99.90
22065;DHT22;11197;53.110;8.468;2022-12-29T17:40:32;8.90;99.90
22065;DHT22;11197;53.110;8.468;2022-12-29T17:43:01;8.90;99.90
22065;DHT22;11197;53.110;8.468;2022-12-29T17:45:31;8.80;99.90
22065;DHT22;11197;53.110;8.468;2022-12-29T17:47:59;8.90;99.90
22065;DHT22;11197;53.110;8.468;2022-12-29T17:50:36;8.90;99.90
22065;DHT22;11197;53.110;8.468;2022-12-29T17:53:10;8.90;99.90
22065;DHT22;11197;53.110;8.468;2022-12-29T17:55:43;9.00;99.90
22065;DHT22;11197;53.110;8.468;2022-12-29T17:58:28;9.00;99.90
22065;DHT22;11197;53.110;8.468;2022-12-29T18:01:01;9.30;99.90
22065;DHT22;11197;53.110;8.468;2022-12-29T18:03:38;10.00;99.90
22065;DHT22;11197;53.110;8.468;2022-12-29T18:06:10;10.60;99.90
22065;DHT22;11197;53.110;8.468;2022-12-29T18:08:39;11.10;99.90
22065;DHT22;11197;53.110;8.468;2022-12-29T18:11:23;11.00;99.90
22065;DHT22;11197;53.110;8.468;2022-12-29T18:13:59;10.70;99.90
22065;DHT22;11197;53.110;8.468;2022-12-29T18:16:35;10.40;99.90
22065;DHT22;11197;53.110;8.468;2022-12-29T18:19:07;10.30;99.90
22065;DHT22;11197;53.110;8.468;2022-12-29T18:21:42;10.10;99.90
22065;DHT22;11197;53.110;8.468;2022-12-29T18:24:25;10.00;99.90
22065;DHT22;11197;53.110;8.468;2022-12-29T18:26:58;10.00;99.90
22065;DHT22;11197;53.110;8.468;2022-12-29T18:29:30;9.90;99.90
22065;DHT22;11197;53.110;8.468;2022-12-29T18:32:04;9.80;99.90
22065;DHT22;11197;53.110;8.468;2022-12-29T18:34:32;9.70;99.90
22065;DHT22;11197;53.110;8.468;2022-12-29T18:37:01;9.70;99.90
22065;DHT22;11197;53.110;8.468;2022-12-29T18:39:27;9.70;99.90
22065;DHT22;11197;53.110;8.468;2022-12-29T18:41:56;9.60;99.90
22065;DHT22;11197;53.110;8.468;2022-12-29T18:44:25;9.60;99.90
22065;DHT22;11197;53.110;8.468;2022-12-29T18:46:58;9.60;99.90
22065;DHT22;11197;53.110;8.468;2022-12-29T18:49:28;9.60;99.90
22065;DHT22;11197;53.110;8.468;2022-12-29T18:51:54;9.60;99.90
22065;DHT22;11197;53.110;8.468;2022-12-29T18:54:34;9.60;99.90
22065;DHT22;11197;53.110;8.468;2022-12-29T18:57:05;9.60;99.90
22065;DHT22;11197;53.110;8.468;2022-12-29T18:59:31;9.60;99.90